createdAt,value
2019-01-03T00:02:13.546Z,13.37
2019-01-03T00:05:00.340Z,14.17
2019-01-03T00:07:58.987Z,16.63
2019-01-03T00:10:39.422Z,13.20
2019-01-03T00:13:24.760Z,17.03
2019-01-03T00:16:26.362Z,12.00
2019-01-03T00:19:28.267Z,11.63
2019-01-03T00:22:13.848Z,12.80
2019-01-03T00:24:59.436Z,15.87
2019-01-03T00:27:44.565Z,15.77
2019-01-03T00:30:37.602Z,12.80
2019-01-03T00:33:23.040Z,11.17
2019-01-03T00:36:09.799Z,8.60
2019-01-03T00:38:55.520Z,13.33
2019-01-03T00:41:40.843Z,12.93
2019-01-03T00:44:27.269Z,13.33
2019-01-03T00:47:07.707Z,9.47
2019-01-03T00:50:09.547Z,12.43
2019-01-03T00:52:59.009Z,9.43
2019-01-03T00:55:52.311Z,11.00
2019-01-03T00:58:51.148Z,8.60
2019-01-03T01:01:52.956Z,7.80
2019-01-03T01:04:48.542Z,18.23
2019-01-03T01:07:35.292Z,11.37
2019-01-03T01:10:20.963Z,15.20
2019-01-03T01:13:10.753Z,8.27
2019-01-03T01:15:57.507Z,11.63
2019-01-03T01:18:55.950Z,21.37
2019-01-03T01:21:41.252Z,12.57
2019-01-03T01:24:26.358Z,11.83
2019-01-03T01:27:07.416Z,6.03
2019-01-03T01:29:53.278Z,6.87
2019-01-03T01:32:38.723Z,3.17
2019-01-03T01:35:28.524Z,7.07
2019-01-03T01:38:12.933Z,5.53
2019-01-03T01:41:08.693Z,6.20
2019-01-03T01:43:54.503Z,12.00
2019-01-03T01:46:56.104Z,10.73
2019-01-03T01:49:41.459Z,17.37
2019-01-03T01:52:23.448Z,8.43
2019-01-03T01:55:08.955Z,8.00
2019-01-03T01:57:54.160Z,7.20
2019-01-03T02:00:48.407Z,7.03
2019-01-03T02:03:44.654Z,9.67
2019-01-03T02:06:30.047Z,9.63
2019-01-03T02:09:15.302Z,7.70
2019-01-03T02:12:10.975Z,41.17
2019-01-03T02:14:52.397Z,27.20
2019-01-03T02:17:34.483Z,30.60
2019-01-03T02:20:23.788Z,10.13
2019-01-03T02:23:11.179Z,5.63
2019-01-03T02:25:57.955Z,18.07
2019-01-03T02:28:43.227Z,9.97
2019-01-03T02:31:28.891Z,19.93
2019-01-03T02:34:15.630Z,11.97
2019-01-03T02:37:01.138Z,11.17
2019-01-03T02:39:46.328Z,11.10
2019-01-03T02:42:38.827Z,12.23
2019-01-03T02:45:24.278Z,8.00
2019-01-03T02:48:09.908Z,11.63
2019-01-03T02:50:56.664Z,9.17
2019-01-03T02:53:42.596Z,9.07
2019-01-03T02:56:27.787Z,13.00
2019-01-03T02:59:13.519Z,8.50
2019-01-03T03:02:10.852Z,7.03
2019-01-03T03:04:58.288Z,5.50
2019-01-03T03:08:03.778Z,6.40
2019-01-03T03:11:05.532Z,9.60
2019-01-03T03:13:55.207Z,10.00
2019-01-03T03:16:50.367Z,10.27
2019-01-03T03:19:35.800Z,4.43
2019-01-03T03:22:21.040Z,12.40
2019-01-03T03:25:06.216Z,9.23
2019-01-03T03:27:46.766Z,5.90
2019-01-03T03:30:36.056Z,7.53
2019-01-03T03:33:28.648Z,7.13
2019-01-03T03:36:06.404Z,12.73
2019-01-03T03:38:51.535Z,7.27
2019-01-03T03:41:32.247Z,12.30
2019-01-03T03:44:18.076Z,15.63
2019-01-03T03:47:03.803Z,8.93
2019-01-03T03:49:49.181Z,14.23
2019-01-03T03:52:35.931Z,9.53
2019-01-03T03:55:21.320Z,19.27
2019-01-03T03:58:07.001Z,10.53
2019-01-03T04:01:12.419Z,9.03
2019-01-03T04:04:11.007Z,8.23
2019-01-03T04:07:00.634Z,8.07
2019-01-03T04:09:38.556Z,15.30
2019-01-03T04:12:31.154Z,16.23
2019-01-03T04:15:16.527Z,5.93
2019-01-03T04:18:16.636Z,14.07
2019-01-03T04:21:09.354Z,11.43
2019-01-03T04:23:58.879Z,15.47
2019-01-03T04:26:48.619Z,10.40
2019-01-03T04:29:37.081Z,6.70
2019-01-03T04:32:29.749Z,10.93
2019-01-03T04:35:16.605Z,15.40
2019-01-03T04:38:12.155Z,14.17
2019-01-03T04:40:57.591Z,9.13
2019-01-03T04:43:43.184Z,11.77
2019-01-03T04:46:26.044Z,12.30
2019-01-03T04:49:11.393Z,11.57
2019-01-03T04:51:59.460Z,10.47
2019-01-03T04:54:44.838Z,8.40
2019-01-03T04:57:31.592Z,13.90
2019-01-03T05:00:27.317Z,8.97
2019-01-03T05:03:26.363Z,10.50
2019-01-03T05:06:12.151Z,12.47
2019-01-03T05:09:00.697Z,12.73
2019-01-03T05:12:02.377Z,12.07
2019-01-03T05:14:48.023Z,7.33
2019-01-03T05:17:33.096Z,11.80
2019-01-03T05:20:18.968Z,15.27
2019-01-03T05:23:04.143Z,12.80
2019-01-03T05:26:05.757Z,12.20
2019-01-03T05:28:51.449Z,11.47
2019-01-03T05:31:36.876Z,9.43
2019-01-03T05:34:23.633Z,11.20
2019-01-03T05:37:15.891Z,12.90
2019-01-03T05:40:08.636Z,9.10
2019-01-03T05:43:10.772Z,6.80
2019-01-03T05:45:56.344Z,8.60
2019-01-03T05:48:43.082Z,10.60
2019-01-03T05:51:28.165Z,12.53
2019-01-03T05:54:17.110Z,7.87
2019-01-03T05:57:03.856Z,13.53
2019-01-03T05:59:49.180Z,12.13
2019-01-03T06:02:34.283Z,8.03
2019-01-03T06:05:24.207Z,12.23
2019-01-03T06:08:09.535Z,7.33
2019-01-03T06:10:54.769Z,7.37
2019-01-03T06:13:56.806Z,13.73
2019-01-03T06:16:42.431Z,12.80
2019-01-03T06:19:32.003Z,8.70
2019-01-03T06:22:17.648Z,17.73
2019-01-03T06:25:12.813Z,15.07
2019-01-03T06:27:58.395Z,15.43
2019-01-03T06:31:03.106Z,14.30
2019-01-03T06:33:49.851Z,26.20
2019-01-03T06:36:39.579Z,14.43
2019-01-03T06:39:25.666Z,18.13
2019-01-03T06:42:13.991Z,21.37
2019-01-03T06:45:15.531Z,15.63
2019-01-03T06:48:15.090Z,17.43
2019-01-03T06:51:10.758Z,19.33
2019-01-03T06:54:00.316Z,9.07
2019-01-03T06:56:59.445Z,13.57
2019-01-03T06:59:55.272Z,15.93
2019-01-03T07:02:45.471Z,12.90
2019-01-03T07:05:47.071Z,22.27
2019-01-03T07:08:45.919Z,9.90
2019-01-03T07:11:32.035Z,15.00
2019-01-03T07:14:36.971Z,10.73
2019-01-03T07:17:22.350Z,24.50
2019-01-03T07:20:03.519Z,8.83
2019-01-03T07:22:56.088Z,8.63
2019-01-03T07:25:51.671Z,14.87
2019-01-03T07:28:41.191Z,13.57
2019-01-03T07:31:40.028Z,19.83
2019-01-03T07:34:45.058Z,16.00
2019-01-03T07:37:40.900Z,10.30
2019-01-03T07:40:39.559Z,14.93
2019-01-03T07:43:29.115Z,10.07
2019-01-03T07:46:18.424Z,10.50
2019-01-03T07:49:03.623Z,15.30
2019-01-03T07:51:48.663Z,7.20
2019-01-03T07:54:40.859Z,9.00
2019-01-03T07:57:26.044Z,13.13
2019-01-03T08:00:15.531Z,10.50
2019-01-03T08:03:15.159Z,14.93
2019-01-03T08:05:56.769Z,20.67
2019-01-03T08:08:42.340Z,12.30
2019-01-03T08:11:27.443Z,19.83
2019-01-03T08:14:12.560Z,18.73
2019-01-03T08:16:52.951Z,18.03
2019-01-03T08:19:39.717Z,18.53
2019-01-03T08:22:38.726Z,11.37
2019-01-03T08:25:24.076Z,9.87
2019-01-03T08:28:09.247Z,13.80
2019-01-03T08:30:56.015Z,12.17
2019-01-03T08:34:01.055Z,13.43
2019-01-03T08:37:06.315Z,14.13
2019-01-03T08:39:49.646Z,25.63
2019-01-03T08:42:34.635Z,20.87
2019-01-03T08:45:36.543Z,21.10
2019-01-03T08:48:42.674Z,31.70
2019-01-03T08:51:32.459Z,43.63
2019-01-03T08:54:16.335Z,36.43
2019-01-03T08:57:03.171Z,23.37
2019-01-03T08:59:41.095Z,22.83
2019-01-03T09:02:33.788Z,16.77
2019-01-03T09:05:19.065Z,19.13
2019-01-03T09:08:06.138Z,25.47
2019-01-03T09:10:59.068Z,33.23
2019-01-03T09:13:44.463Z,22.97
2019-01-03T09:16:29.805Z,25.37
2019-01-03T09:19:14.903Z,24.57
2019-01-03T09:22:07.248Z,20.90
2019-01-03T09:24:52.715Z,27.07
2019-01-03T09:27:48.515Z,18.67
2019-01-03T09:30:34.032Z,26.57
2019-01-03T09:33:37.276Z,23.80
2019-01-03T09:36:16.359Z,31.50
2019-01-03T09:39:17.399Z,25.27
2019-01-03T09:42:02.823Z,23.03
2019-01-03T09:44:45.458Z,32.50
2019-01-03T09:47:12.790Z,31.80
2019-01-03T09:49:40.010Z,31.27
2019-01-03T09:52:07.266Z,26.57
2019-01-03T09:54:34.908Z,24.53
2019-01-03T09:57:02.179Z,29.60
2019-01-03T09:59:29.547Z,33.50
2019-01-03T10:01:56.867Z,20.63
2019-01-03T10:04:24.271Z,21.23
2019-01-03T10:06:51.513Z,25.03
2019-01-03T10:09:18.774Z,19.33
2019-01-03T10:11:46.163Z,20.70
2019-01-03T10:14:13.447Z,28.87
2019-01-03T10:16:40.691Z,24.23
2019-01-03T10:19:07.967Z,32.43
2019-01-03T10:21:35.191Z,33.77
2019-01-03T10:24:02.511Z,36.37
2019-01-03T10:26:29.891Z,42.67
2019-01-03T10:28:57.634Z,32.03
2019-01-03T10:31:24.934Z,39.27
2019-01-03T10:33:52.224Z,36.10
2019-01-03T10:36:24.277Z,24.60
2019-01-03T10:38:48.830Z,27.83
2019-01-03T10:41:16.120Z,28.17
2019-01-03T10:43:43.367Z,30.30
2019-01-03T10:46:10.737Z,27.63
2019-01-03T10:48:38.071Z,35.83
2019-01-03T10:51:05.324Z,27.03
2019-01-03T10:53:32.676Z,21.37
2019-01-03T10:55:59.947Z,25.17
2019-01-03T10:58:27.214Z,21.20
2019-01-03T11:00:54.486Z,30.93
2019-01-03T11:03:21.804Z,20.23
2019-01-03T11:05:49.142Z,30.80
2019-01-03T11:08:16.502Z,40.60
2019-01-03T11:10:43.845Z,21.87
2019-01-03T11:13:11.186Z,27.67
2019-01-03T11:15:38.411Z,27.90
2019-01-03T11:18:05.818Z,30.27
2019-01-03T11:20:33.109Z,26.53
2019-01-03T11:23:03.310Z,20.97
2019-01-03T11:25:30.528Z,19.97
2019-01-03T11:27:57.823Z,20.27
2019-01-03T11:30:25.063Z,26.00
2019-01-03T11:32:52.328Z,24.30
2019-01-03T11:35:19.554Z,27.60
2019-01-03T11:37:46.827Z,21.77
2019-01-03T11:40:14.088Z,26.20
2019-01-03T11:42:41.340Z,24.80
2019-01-03T11:45:08.704Z,28.70
2019-01-03T11:47:35.988Z,48.90
2019-01-03T11:50:03.727Z,36.53
2019-01-03T11:52:31.012Z,29.27
2019-01-03T11:54:58.239Z,27.43
2019-01-03T11:57:25.475Z,34.63
2019-01-03T11:59:52.724Z,27.13
2019-01-03T12:02:25.422Z,29.67
2019-01-03T12:04:49.151Z,21.63
2019-01-03T12:07:16.395Z,22.67
2019-01-03T12:09:43.647Z,23.80
2019-01-03T12:12:10.957Z,21.37
2019-01-03T12:14:38.223Z,26.13
2019-01-03T12:17:05.495Z,22.97
2019-01-03T12:19:32.743Z,20.43
2019-01-03T12:21:59.991Z,21.27
2019-01-03T12:24:30.549Z,23.13
2019-01-03T12:26:56.371Z,26.03
2019-01-03T12:29:23.610Z,16.50
2019-01-03T12:31:50.940Z,27.47
2019-01-03T12:34:18.187Z,28.20
2019-01-03T12:36:45.435Z,29.83
2019-01-03T12:39:12.795Z,20.07
2019-01-03T12:41:40.008Z,27.50
2019-01-03T12:44:10.254Z,24.40
2019-01-03T12:46:37.505Z,27.47
2019-01-03T12:49:04.797Z,34.20
2019-01-03T12:51:32.046Z,33.70
2019-01-03T12:53:59.297Z,29.73
2019-01-03T12:56:26.536Z,27.67
2019-01-03T12:58:53.813Z,39.40
2019-01-03T13:01:21.127Z,21.67
2019-01-03T13:03:48.395Z,31.87
2019-01-03T13:06:21.005Z,25.07
2019-01-03T13:08:44.831Z,25.60
2019-01-03T13:11:12.080Z,28.40
2019-01-03T13:13:39.343Z,27.50
2019-01-03T13:16:06.787Z,24.03
2019-01-03T13:18:34.161Z,32.80
2019-01-03T13:21:01.399Z,29.83
2019-01-03T13:23:28.984Z,32.90
2019-01-03T13:25:56.295Z,24.23
2019-01-03T13:28:23.631Z,26.43
2019-01-03T13:30:50.936Z,28.60
2019-01-03T13:33:18.239Z,22.87
2019-01-03T13:35:45.480Z,26.33
2019-01-03T13:38:12.739Z,24.37
2019-01-03T13:40:39.954Z,27.77
2019-01-03T13:43:08.012Z,29.33
2019-01-03T13:45:35.267Z,24.73
2019-01-03T13:48:02.640Z,27.70
2019-01-03T13:50:30.019Z,26.10
2019-01-03T13:52:57.312Z,33.33
2019-01-03T13:55:24.727Z,25.03
2019-01-03T13:57:52.077Z,26.33
2019-01-03T14:00:19.400Z,26.20
2019-01-03T14:03:06.170Z,28.27
2019-01-03T14:05:33.428Z,31.33
2019-01-03T14:08:00.704Z,25.40
2019-01-03T14:10:27.964Z,18.77
2019-01-03T14:12:55.227Z,28.40
2019-01-03T14:15:22.455Z,26.80
2019-01-03T14:17:49.674Z,25.13
2019-01-03T14:20:16.950Z,23.27
2019-01-03T14:22:44.204Z,22.37
2019-01-03T14:25:11.443Z,34.23
2019-01-03T14:27:38.664Z,22.40
2019-01-03T14:30:07.681Z,25.00
2019-01-03T14:32:35.807Z,25.10
2019-01-03T14:35:03.124Z,28.27
2019-01-03T14:37:30.368Z,43.97
2019-01-03T14:39:57.595Z,41.07
2019-01-03T14:42:24.938Z,34.23
2019-01-03T14:44:52.259Z,39.17
2019-01-03T14:47:19.596Z,159.63
2019-01-03T14:49:46.835Z,173.73
2019-01-03T14:52:14.078Z,96.43
2019-01-03T14:54:41.319Z,98.50
2019-01-03T14:57:11.367Z,61.47
2019-01-03T14:59:38.700Z,59.73
2019-01-03T15:02:06.035Z,34.07
2019-01-03T15:04:33.247Z,32.17
2019-01-03T15:07:00.515Z,26.73
2019-01-03T15:09:27.815Z,27.70
2019-01-03T15:11:55.070Z,27.30
2019-01-03T15:14:22.317Z,27.60
2019-01-03T15:16:49.589Z,29.57
2019-01-03T15:19:16.910Z,24.43
2019-01-03T15:21:44.190Z,31.83
2019-01-03T15:24:11.418Z,32.80
2019-01-03T15:26:38.651Z,42.67
2019-01-03T15:29:05.900Z,26.63
2019-01-03T15:31:33.183Z,22.10
2019-01-03T15:34:00.435Z,13.70
2019-01-03T15:36:27.720Z,17.97
2019-01-03T15:38:54.952Z,17.13
2019-01-03T15:41:22.267Z,12.33
2019-01-03T15:43:49.525Z,14.43
2019-01-03T15:46:16.760Z,15.17
2019-01-03T15:48:44.124Z,11.03
2019-01-03T15:51:11.567Z,14.90
2019-01-03T15:53:38.984Z,12.60
2019-01-03T15:56:06.243Z,13.20
2019-01-03T15:58:33.535Z,16.77
2019-01-03T16:01:02.561Z,17.97
2019-01-03T16:03:29.974Z,19.43
2019-01-03T16:05:57.207Z,100.53
2019-01-03T16:08:24.436Z,91.20
2019-01-03T16:10:51.835Z,55.60
2019-01-03T16:13:19.163Z,43.63
2019-01-03T16:15:46.525Z,35.50
2019-01-03T16:18:13.854Z,28.53
2019-01-03T16:20:41.119Z,38.13
2019-01-03T16:23:08.340Z,36.23
2019-01-03T16:25:35.679Z,28.70
2019-01-03T16:28:03.410Z,55.77
2019-01-03T16:30:30.823Z,48.70
2019-01-03T16:32:58.076Z,39.37
2019-01-03T16:35:25.318Z,34.97
2019-01-03T16:37:52.652Z,45.40
2019-01-03T16:40:20.128Z,44.00
2019-01-03T16:42:47.507Z,42.43
2019-01-03T16:45:15.660Z,41.00
2019-01-03T16:47:43.080Z,32.77
2019-01-03T16:50:17.861Z,31.87
2019-01-03T16:52:45.296Z,30.23
2019-01-03T16:55:12.793Z,40.17
2019-01-03T16:57:40.186Z,35.90
2019-01-03T17:00:10.253Z,34.63
2019-01-03T17:02:37.717Z,33.23
2019-01-03T17:05:05.400Z,35.27
2019-01-03T17:07:32.856Z,28.67
2019-01-03T17:10:00.155Z,32.27
2019-01-03T17:12:27.479Z,28.57
2019-01-03T17:14:55.099Z,31.60
2019-01-03T17:17:22.424Z,34.73
2019-01-03T17:19:49.789Z,29.70
2019-01-03T17:22:17.083Z,31.57
2019-01-03T17:24:44.427Z,35.13
2019-01-03T17:27:11.697Z,27.53
2019-01-03T17:29:39.024Z,26.47
2019-01-03T17:32:06.265Z,37.10
2019-01-03T17:34:33.525Z,24.23
2019-01-03T17:37:00.763Z,30.63
2019-01-03T17:39:28.088Z,33.57
2019-01-03T17:41:55.443Z,34.33
2019-01-03T17:44:22.814Z,37.33
2019-01-03T17:46:50.079Z,27.07
2019-01-03T17:49:17.358Z,36.80
2019-01-03T17:51:44.643Z,35.23
2019-01-03T17:54:11.919Z,33.77
2019-01-03T17:56:39.213Z,32.50
2019-01-03T17:59:06.489Z,38.80
2019-01-03T18:01:33.735Z,30.30
2019-01-03T18:04:01.164Z,31.53
2019-01-03T18:06:28.411Z,32.73
2019-01-03T18:08:55.699Z,38.90
2019-01-03T18:11:22.976Z,37.47
2019-01-03T18:13:50.313Z,33.73
2019-01-03T18:16:17.571Z,37.33
2019-01-03T18:18:44.843Z,36.37
2019-01-03T18:21:12.084Z,35.27
2019-01-03T18:23:39.368Z,66.20
2019-01-03T18:26:06.611Z,57.20
2019-01-03T18:28:33.960Z,40.97
2019-01-03T18:31:01.226Z,37.37
2019-01-03T18:33:28.467Z,34.97
2019-01-03T18:35:55.811Z,41.10
2019-01-03T18:38:23.151Z,38.67
2019-01-03T18:40:50.403Z,39.63
2019-01-03T18:43:17.681Z,35.17
2019-01-03T18:45:44.955Z,46.93
2019-01-03T18:48:12.223Z,35.10
2019-01-03T18:50:39.539Z,31.43
2019-01-03T18:53:06.837Z,38.27
2019-01-03T18:55:34.443Z,36.43
2019-01-03T18:58:01.844Z,37.43
2019-01-03T19:00:29.199Z,31.40
2019-01-03T19:02:56.540Z,41.10
2019-01-03T19:05:24.057Z,58.63
2019-01-03T19:07:51.397Z,43.20
2019-01-03T19:10:18.738Z,43.70
2019-01-03T19:12:46.030Z,59.30
2019-01-03T19:15:13.427Z,48.07
2019-01-03T19:17:40.776Z,61.47
2019-01-03T19:20:09.741Z,54.40
2019-01-03T19:22:37.458Z,44.83
2019-01-03T19:25:07.387Z,36.50
2019-01-03T19:27:34.715Z,33.73
2019-01-03T19:30:02.064Z,38.23
2019-01-03T19:32:30.187Z,54.73
2019-01-03T19:34:57.543Z,38.47
2019-01-03T19:37:26.029Z,37.17
2019-01-03T19:39:53.273Z,35.70
2019-01-03T19:42:21.239Z,40.83
2019-01-03T19:44:48.607Z,38.77
2019-01-03T19:47:16.154Z,38.03
2019-01-03T19:49:43.415Z,41.00
2019-01-03T19:52:10.758Z,32.43
2019-01-03T19:54:38.059Z,33.63
2019-01-03T19:57:05.439Z,37.30
2019-01-03T19:59:32.836Z,32.90
2019-01-03T20:02:00.233Z,36.10
2019-01-03T20:04:27.655Z,26.63
2019-01-03T20:06:54.902Z,34.90
2019-01-03T20:09:25.350Z,34.07
2019-01-03T20:11:52.735Z,34.40
2019-01-03T20:14:19.999Z,25.97
2019-01-03T20:16:47.227Z,24.97
2019-01-03T20:19:14.526Z,24.43
2019-01-03T20:21:41.756Z,20.03
2019-01-03T20:24:09.152Z,21.93
2019-01-03T20:26:36.483Z,24.40
2019-01-03T20:29:03.736Z,26.27
2019-01-03T20:31:31.014Z,30.23
2019-01-03T20:33:58.239Z,23.10
2019-01-03T20:36:25.495Z,27.90
2019-01-03T20:38:52.746Z,23.00
2019-01-03T20:41:19.982Z,25.43
2019-01-03T20:43:47.204Z,29.30
2019-01-03T20:46:14.478Z,28.13
2019-01-03T20:48:41.726Z,22.23
2019-01-03T20:51:08.972Z,29.00
2019-01-03T20:53:36.323Z,24.23
2019-01-03T20:56:03.625Z,30.43
2019-01-03T20:58:31.023Z,24.83
2019-01-03T21:00:58.309Z,21.57
2019-01-03T21:03:25.548Z,40.83
2019-01-03T21:05:52.950Z,59.27
2019-01-03T21:08:20.181Z,45.00
2019-01-03T21:10:47.426Z,53.50
2019-01-03T21:13:14.765Z,45.47
2019-01-03T21:15:42.094Z,45.13
2019-01-03T21:18:09.316Z,39.60
2019-01-03T21:20:36.624Z,38.80
2019-01-03T21:23:03.865Z,48.37
2019-01-03T21:25:31.115Z,37.53
2019-01-03T21:27:58.372Z,44.30
2019-01-03T21:30:25.715Z,46.97
2019-01-03T21:32:52.939Z,43.73
2019-01-03T21:35:20.189Z,42.73
2019-01-03T21:37:47.428Z,51.70
2019-01-03T21:40:14.688Z,41.00
2019-01-03T21:42:41.935Z,53.60
2019-01-03T21:45:09.181Z,43.97
2019-01-03T21:47:36.413Z,45.93
2019-01-03T21:50:07.712Z,36.90
2019-01-03T21:52:34.979Z,47.10
2019-01-03T21:55:03.549Z,42.73
2019-01-03T21:57:30.993Z,40.53
2019-01-03T21:59:58.384Z,48.43
2019-01-03T22:02:25.861Z,39.33
2019-01-03T22:04:53.259Z,43.17
2019-01-03T22:07:20.654Z,38.50
2019-01-03T22:09:48.056Z,42.37
2019-01-03T22:12:15.421Z,42.57
2019-01-03T22:14:42.775Z,42.50
2019-01-03T22:17:10.060Z,46.60
2019-01-03T22:19:37.340Z,48.33
2019-01-03T22:22:04.760Z,39.23
2019-01-03T22:24:32.165Z,40.13
2019-01-03T22:26:59.511Z,55.77
2019-01-03T22:29:26.882Z,44.47
2019-01-03T22:31:54.132Z,49.60
2019-01-03T22:34:21.369Z,57.40
2019-01-03T22:36:48.631Z,53.60
2019-01-03T22:39:15.999Z,51.27
2019-01-03T22:41:43.264Z,48.27
2019-01-03T22:44:10.568Z,54.00
2019-01-03T22:46:37.835Z,43.47
2019-01-03T22:49:05.562Z,48.10
2019-01-03T22:51:32.827Z,45.97
2019-01-03T22:54:00.055Z,38.40
2019-01-03T22:56:27.788Z,51.73
2019-01-03T22:58:55.016Z,42.33
2019-01-03T23:01:22.335Z,31.00
2019-01-03T23:03:49.588Z,43.33
2019-01-03T23:06:16.835Z,35.60
2019-01-03T23:08:44.067Z,35.93
2019-01-03T23:11:11.400Z,30.00
2019-01-03T23:13:38.659Z,31.00
2019-01-03T23:16:05.935Z,32.87
2019-01-03T23:18:33.163Z,28.63
2019-01-03T23:21:00.408Z,37.10
2019-01-03T23:23:27.656Z,25.80
2019-01-03T23:25:54.891Z,29.00
2019-01-03T23:28:22.119Z,34.60
2019-01-03T23:30:49.377Z,28.57
2019-01-03T23:33:16.614Z,29.83
2019-01-03T23:35:44.084Z,30.13
2019-01-03T23:38:11.332Z,36.33
2019-01-03T23:40:38.578Z,30.70
2019-01-03T23:43:05.947Z,28.27
2019-01-03T23:45:33.638Z,34.63
2019-01-03T23:48:01.249Z,47.20
2019-01-03T23:50:30.726Z,46.87
2019-01-03T23:52:57.983Z,49.13
2019-01-03T23:55:25.463Z,42.07
2019-01-03T23:57:52.760Z,37.93
